createdAt,value
2023-07-21T00:00:43.202Z,96553.34
2023-07-21T00:01:45.121Z,96554.94
2023-07-21T00:02:47.021Z,96551.25
2023-07-21T00:03:49.735Z,96549.63
2023-07-21T00:04:51.506Z,96548.06
2023-07-21T00:05:53.414Z,96539.06
2023-07-21T00:06:55.160Z,96547.78
2023-07-21T00:07:57.758Z,96551.25
2023-07-21T00:09:00.856Z,96545.94
2023-07-21T00:10:08.803Z,96551.75
2023-07-21T00:11:11.136Z,96547.00
2023-07-21T00:12:12.926Z,96544.88
2023-07-21T00:13:15.430Z,96543.81
2023-07-21T00:14:17.958Z,96544.34
2023-07-21T00:15:20.216Z,96535.59
2023-07-21T00:16:22.433Z,96538.78
2023-07-21T00:17:24.505Z,96540.09
2023-07-21T00:18:26.470Z,96540.38
2023-07-21T00:19:28.398Z,96534.03
2023-07-21T00:20:33.972Z,96541.19
2023-07-21T00:21:36.359Z,96540.66
2023-07-21T00:22:44.162Z,96532.97
2023-07-21T00:23:46.110Z,96535.38
2023-07-21T00:24:47.906Z,96525.31
2023-07-21T00:25:49.745Z,96529.53
2023-07-21T00:26:54.549Z,96525.84
2023-07-21T00:27:56.516Z,96526.34
2023-07-21T00:28:58.549Z,96522.91
2023-07-21T00:30:00.362Z,96522.91
2023-07-21T00:31:02.140Z,96518.16
2023-07-21T00:32:04.086Z,96526.88
2023-07-21T00:33:06.059Z,96526.34
2023-07-21T00:34:10.108Z,96528.72
2023-07-21T00:35:12.576Z,96525.81
2023-07-21T00:36:15.155Z,96527.38
2023-07-21T00:37:17.003Z,96527.38
2023-07-21T00:38:18.807Z,96525.25
2023-07-21T00:39:20.782Z,96526.06
2023-07-21T00:40:24.738Z,96523.94
2023-07-21T00:41:26.780Z,96519.19
2023-07-21T00:42:28.628Z,96524.19
2023-07-21T00:43:30.363Z,96520.75
2023-07-21T00:44:32.150Z,96518.09
2023-07-21T00:45:36.202Z,96514.41
2023-07-21T00:46:38.613Z,96514.13
2023-07-21T00:47:41.356Z,96514.13
2023-07-21T00:48:43.226Z,96513.06
2023-07-21T00:49:45.664Z,96512.00
2023-07-21T00:50:48.998Z,96506.44
2023-07-21T00:51:50.907Z,96501.94
2023-07-21T00:52:52.880Z,96504.88
2023-07-21T00:53:55.680Z,96505.66
2023-07-21T00:54:57.583Z,96509.13
2023-07-21T00:55:59.474Z,96510.97
2023-07-21T00:57:01.330Z,96507.56
2023-07-21T00:58:03.089Z,96501.72
2023-07-21T00:59:05.002Z,96502.25
2023-07-21T01:00:11.901Z,96501.72
2023-07-21T01:01:14.834Z,96500.94
2023-07-21T01:02:16.935Z,96502.53
2023-07-21T01:03:20.353Z,96498.84
2023-07-21T01:04:23.736Z,96502.28
2023-07-21T01:05:26.223Z,96497.78
2023-07-21T01:06:29.001Z,96500.16
2023-07-21T01:07:32.164Z,96507.03
2023-07-21T01:08:34.076Z,96505.19
2023-07-21T01:09:37.012Z,96500.69
2023-07-21T01:10:39.787Z,96507.31
2023-07-21T01:11:42.036Z,96511.53
2023-07-21T01:12:44.250Z,96509.97
2023-07-21T01:13:46.418Z,96507.31
2023-07-21T01:14:48.207Z,96509.97
2023-07-21T01:15:51.236Z,96512.06
2023-07-21T01:16:53.102Z,96510.75
2023-07-21T01:17:56.351Z,96508.38
2023-07-21T01:18:59.075Z,96504.16
2023-07-21T01:20:01.569Z,96503.09
2023-07-21T01:21:05.933Z,96503.59
2023-07-21T01:22:07.697Z,96496.75
2023-07-21T01:23:21.609Z,96501.50
2023-07-21T01:24:27.316Z,96495.16
2023-07-21T01:25:30.053Z,96498.88
2023-07-21T01:26:32.448Z,96493.03
2023-07-21T01:27:37.938Z,96490.94
2023-07-21T01:28:41.234Z,96491.47
2023-07-21T01:29:44.529Z,96494.91
2023-07-21T01:30:49.832Z,96495.94
2023-07-21T01:31:53.725Z,96488.81
2023-07-21T01:32:57.118Z,96490.94
2023-07-21T01:33:59.081Z,96495.19
2023-07-21T01:35:01.074Z,96490.94
2023-07-21T01:36:03.702Z,96486.97
2023-07-21T01:37:07.571Z,96485.13
2023-07-21T01:38:11.957Z,96477.72
2023-07-21T01:39:14.427Z,96481.41
2023-07-21T01:40:16.919Z,96474.31
2023-07-21T01:41:18.751Z,96474.03
2023-07-21T01:42:21.746Z,96473.25
2023-07-21T01:43:25.316Z,96467.69
2023-07-21T01:44:27.408Z,96466.38
2023-07-21T01:45:31.990Z,96466.63
2023-07-21T01:46:33.856Z,96467.66
2023-07-21T01:47:37.025Z,96463.97
2023-07-21T01:48:38.873Z,96466.09
2023-07-21T01:49:40.988Z,96465.84
2023-07-21T01:50:43.995Z,96468.22
2023-07-21T01:51:47.158Z,96467.66
2023-07-21T01:52:49.431Z,96458.69
2023-07-21T01:53:55.068Z,96461.09
2023-07-21T01:55:00.035Z,96461.88
2023-07-21T01:56:09.544Z,96460.78
2023-07-21T01:57:13.834Z,96456.56
2023-07-21T01:58:16.197Z,96449.69
2023-07-21T01:59:20.429Z,96444.41
2023-07-21T02:00:24.369Z,96447.03
2023-07-21T02:01:27.237Z,96439.41
2023-07-21T02:02:29.568Z,96439.66
2023-07-21T02:03:31.580Z,96445.47
2023-07-21T02:04:34.610Z,96442.81
2023-07-21T02:05:36.498Z,96441.25
2023-07-21T02:06:38.242Z,96440.47
2023-07-21T02:07:40.007Z,96444.16
2023-07-21T02:08:41.770Z,96441.00
2023-07-21T02:09:44.012Z,96440.47
2023-07-21T02:10:45.928Z,96444.97
2023-07-21T02:11:50.196Z,96443.09
2023-07-21T02:12:51.930Z,96449.69
2023-07-21T02:13:53.850Z,96455.28
2023-07-21T02:14:55.625Z,96452.38
2023-07-21T02:15:57.511Z,96454.97
2023-07-21T02:16:59.283Z,96457.63
2023-07-21T02:18:01.349Z,96445.44
2023-07-21T02:19:03.355Z,96443.88
2023-07-21T02:20:10.625Z,96444.41
2023-07-21T02:21:12.823Z,96446.00
2023-07-21T02:22:14.627Z,96440.94
2023-07-21T02:23:17.413Z,96443.06
2023-07-21T02:24:19.322Z,96439.09
2023-07-21T02:25:21.168Z,96437.00
2023-07-21T02:26:23.502Z,96434.34
2023-07-21T02:27:25.760Z,96442.03
2023-07-21T02:28:28.527Z,96440.72
2023-07-21T02:29:30.388Z,96448.91
2023-07-21T02:30:32.063Z,96447.88
2023-07-21T02:31:33.912Z,96442.28
2023-07-21T02:32:35.775Z,96447.06
2023-07-21T02:33:38.675Z,96445.22
2023-07-21T02:34:42.429Z,96446.53
2023-07-21T02:35:44.271Z,96456.56
2023-07-21T02:36:46.201Z,96455.25
2023-07-21T02:37:48.323Z,96450.47
2023-07-21T02:38:50.064Z,96452.88
2023-07-21T02:39:51.940Z,96449.44
2023-07-21T02:40:54.240Z,96450.47
2023-07-21T02:41:56.033Z,96457.38
2023-07-21T02:42:57.871Z,96446.81
2023-07-21T02:44:00.692Z,96456.03
2023-07-21T02:45:02.784Z,96455.00
2023-07-21T02:46:05.749Z,96441.78
2023-07-21T02:47:08.864Z,96437.81
2023-07-21T02:48:11.522Z,96434.09
2023-07-21T02:49:13.878Z,96441.25
2023-07-21T02:50:16.031Z,96433.84
2023-07-21T02:51:17.998Z,96434.09
2023-07-21T02:52:20.262Z,96425.91
2023-07-21T02:53:22.071Z,96427.22
2023-07-21T02:54:23.859Z,96417.97
2023-07-21T02:55:25.627Z,96425.38
2023-07-21T02:56:28.130Z,96424.03
2023-07-21T02:57:30.092Z,96423.50
2023-07-21T02:58:31.920Z,96421.41
2023-07-21T02:59:34.119Z,96421.69
2023-07-21T03:00:36.035Z,96424.84
2023-07-21T03:01:38.478Z,96425.91
2023-07-21T03:02:42.806Z,96434.88
2023-07-21T03:03:45.457Z,96428.28
2023-07-21T03:04:47.814Z,96435.97
2023-07-21T03:05:49.685Z,96442.31
2023-07-21T03:06:51.493Z,96443.88
2023-07-21T03:07:53.418Z,96442.56
2023-07-21T03:08:55.315Z,96442.81
2023-07-21T03:09:57.510Z,96433.81
2023-07-21T03:10:59.453Z,96429.88
2023-07-21T03:12:01.329Z,96426.41
2023-07-21T03:13:03.213Z,96422.72
2023-07-21T03:14:04.996Z,96421.16
2023-07-21T03:15:07.561Z,96420.91
2023-07-21T03:16:09.409Z,96417.72
2023-07-21T03:17:13.265Z,96405.28
2023-07-21T03:18:15.098Z,96397.88
2023-07-21T03:19:16.871Z,96398.44
2023-07-21T03:20:18.675Z,96394.72
2023-07-21T03:21:21.029Z,96398.44
2023-07-21T03:22:22.874Z,96408.47
2023-07-21T03:23:25.113Z,96402.13
2023-07-21T03:24:26.970Z,96405.28
2023-07-21T03:25:30.039Z,96411.09
2023-07-21T03:26:31.904Z,96405.25
2023-07-21T03:27:34.708Z,96413.50
2023-07-21T03:28:37.145Z,96411.09
2023-07-21T03:29:39.152Z,96416.91
2023-07-21T03:30:42.574Z,96419.56
2023-07-21T03:31:45.035Z,96416.69
2023-07-21T03:32:47.235Z,96416.91
2023-07-21T03:33:49.768Z,96408.47
2023-07-21T03:34:55.554Z,96415.31
2023-07-21T03:36:05.592Z,96407.41
2023-07-21T03:37:09.684Z,96408.47
2023-07-21T03:38:12.248Z,96416.13
2023-07-21T03:39:13.994Z,96413.22
2023-07-21T03:40:16.999Z,96418.25
2023-07-21T03:41:18.830Z,96417.19
2023-07-21T03:42:20.582Z,96409.50
2023-07-21T03:43:22.440Z,96410.03
2023-07-21T03:44:24.523Z,96405.28
2023-07-21T03:45:27.682Z,96402.63
2023-07-21T03:46:29.993Z,96408.44
2023-07-21T03:47:35.973Z,96411.63
2023-07-21T03:48:38.009Z,96412.66
2023-07-21T03:49:39.826Z,96412.94
2023-07-21T03:50:41.572Z,96409.25
2023-07-21T03:51:43.453Z,96406.31
2023-07-21T03:52:45.249Z,96414.78
2023-07-21T03:53:47.609Z,96412.69
2023-07-21T03:54:49.379Z,96412.38
2023-07-21T03:55:51.499Z,96415.03
2023-07-21T03:56:53.289Z,96415.31
2023-07-21T03:57:55.088Z,96410.03
2023-07-21T03:58:58.829Z,96414.25
2023-07-21T04:00:01.936Z,96423.25
2023-07-21T04:01:03.778Z,96424.03
2023-07-21T04:02:06.009Z,96424.56
2023-07-21T04:03:07.958Z,96425.63
2023-07-21T04:04:09.997Z,96433.84
2023-07-21T04:05:11.827Z,96430.66
2023-07-21T04:06:16.316Z,96425.63
2023-07-21T04:07:18.158Z,96424.59
2023-07-21T04:08:20.364Z,96422.72
2023-07-21T04:09:22.306Z,96420.88
2023-07-21T04:10:24.163Z,96414.78
2023-07-21T04:11:26.207Z,96414.25
2023-07-21T04:12:30.086Z,96409.25
2023-07-21T04:13:31.835Z,96413.19
2023-07-21T04:14:34.142Z,96415.59
2023-07-21T04:15:36.894Z,96417.97
2023-07-21T04:16:38.771Z,96415.84
2023-07-21T04:17:40.681Z,96423.50
2023-07-21T04:18:42.529Z,96418.72
2023-07-21T04:19:44.427Z,96411.59
2023-07-21T04:20:46.139Z,96415.28
2023-07-21T04:21:49.157Z,96415.59
2023-07-21T04:22:51.412Z,96407.91
2023-07-21T04:23:53.760Z,96414.00
2023-07-21T04:24:55.535Z,96400.28
2023-07-21T04:25:57.383Z,96413.75
2023-07-21T04:26:59.540Z,96409.53
2023-07-21T04:28:01.418Z,96406.63
2023-07-21T04:29:03.466Z,96403.97
2023-07-21T04:30:05.438Z,96409.50
2023-07-21T04:31:07.868Z,96410.56
2023-07-21T04:32:09.728Z,96416.09
2023-07-21T04:33:11.498Z,96415.59
2023-07-21T04:34:13.546Z,96423.78
2023-07-21T04:35:17.786Z,96420.31
2023-07-21T04:36:19.558Z,96420.63
2023-07-21T04:37:21.300Z,96417.16
2023-07-21T04:38:23.710Z,96419.00
2023-07-21T04:39:25.636Z,96405.78
2023-07-21T04:40:28.194Z,96408.44
2023-07-21T04:41:29.910Z,96399.16
2023-07-21T04:42:32.224Z,96395.75
2023-07-21T04:43:33.954Z,96393.63
2023-07-21T04:44:35.832Z,96388.03
2023-07-21T04:45:43.686Z,96383.03
2023-07-21T04:46:46.453Z,96391.50
2023-07-21T04:47:50.952Z,96389.38
2023-07-21T04:48:53.043Z,96394.91
2023-07-21T04:49:54.935Z,96399.66
2023-07-21T04:50:58.088Z,96396.75
2023-07-21T04:52:00.207Z,96400.97
2023-07-21T04:53:04.581Z,96406.00
2023-07-21T04:54:06.449Z,96403.34
2023-07-21T04:55:09.855Z,96402.56
2023-07-21T04:56:11.718Z,96402.28
2023-07-21T04:57:13.894Z,96412.59
2023-07-21T04:58:15.740Z,96407.28
2023-07-21T04:59:18.111Z,96418.44
2023-07-21T05:00:20.144Z,96427.16
2023-07-21T05:01:22.249Z,96428.72
2023-07-21T05:02:27.246Z,96424.78
2023-07-21T05:03:29.519Z,96427.16
2023-07-21T05:04:31.367Z,96430.84
2023-07-21T05:05:36.445Z,96437.47
2023-07-21T05:06:38.247Z,96433.78
2023-07-21T05:07:40.225Z,96440.66
2023-07-21T05:08:42.020Z,96439.88
2023-07-21T05:09:43.812Z,96435.34
2023-07-21T05:10:45.632Z,96447.53
2023-07-21T05:11:47.586Z,96443.81
2023-07-21T05:12:49.410Z,96440.91
2023-07-21T05:13:53.076Z,96448.06
2023-07-21T05:14:54.871Z,96451.75
2023-07-21T05:15:58.096Z,96440.38
2023-07-21T05:16:59.920Z,96449.88
2023-07-21T05:18:01.697Z,96445.16
2023-07-21T05:19:04.048Z,96454.94
2023-07-21T05:20:07.181Z,96457.59
2023-07-21T05:21:09.307Z,96459.19
2023-07-21T05:22:11.177Z,96461.34
2023-07-21T05:23:13.217Z,96465.28
2023-07-21T05:24:15.112Z,96471.91
2023-07-21T05:25:18.550Z,96479.84
2023-07-21T05:26:21.032Z,96487.25
2023-07-21T05:27:23.912Z,96496.75
2023-07-21T05:28:25.766Z,96505.22
2023-07-21T05:29:27.823Z,96510.78
2023-07-21T05:30:29.799Z,96516.84
2023-07-21T05:31:32.024Z,96523.75
2023-07-21T05:32:33.956Z,96521.63
2023-07-21T05:33:35.954Z,96528.22
2023-07-21T05:34:37.834Z,96519.75
2023-07-21T05:35:39.843Z,96520.31
2023-07-21T05:36:41.568Z,96520.56
2023-07-21T05:37:43.429Z,96522.66
2023-07-21T05:38:45.270Z,96520.53
2023-07-21T05:39:47.171Z,96518.19
2023-07-21T05:40:59.033Z,96516.59
2023-07-21T05:42:01.010Z,96522.13
2023-07-21T05:43:04.459Z,96519.22
2023-07-21T05:44:06.271Z,96514.72
2023-07-21T05:45:08.574Z,96518.97
2023-07-21T05:46:10.396Z,96517.38
2023-07-21T05:47:12.275Z,96517.91
2023-07-21T05:48:14.062Z,96518.97
2023-07-21T05:49:17.855Z,96510.50
2023-07-21T05:50:19.646Z,96516.31
2023-07-21T05:51:21.373Z,96511.31
2023-07-21T05:52:24.666Z,96513.69
2023-07-21T05:53:26.570Z,96515.25
2023-07-21T05:54:28.539Z,96511.84
2023-07-21T05:55:30.432Z,96505.50
2023-07-21T05:56:32.318Z,96506.81
2023-07-21T05:57:35.695Z,96505.50
2023-07-21T05:58:37.512Z,96502.31
2023-07-21T05:59:39.295Z,96503.63
2023-07-21T06:00:41.250Z,96496.22
2023-07-21T06:01:43.329Z,96488.28
2023-07-21T06:02:45.715Z,96487.25
2023-07-21T06:03:48.228Z,96486.16
2023-07-21T06:04:51.310Z,96492.00
2023-07-21T06:05:53.675Z,96488.81
2023-07-21T06:06:56.661Z,96492.78
2023-07-21T06:07:58.505Z,96483.53
2023-07-21T06:09:00.383Z,96485.09
2023-07-21T06:10:04.222Z,96488.00
2023-07-21T06:11:05.989Z,96483.53
2023-07-21T06:12:08.717Z,96484.06
2023-07-21T06:13:10.458Z,96478.25
2023-07-21T06:14:12.289Z,96481.94
2023-07-21T06:15:14.089Z,96477.19
2023-07-21T06:16:15.930Z,96472.97
2023-07-21T06:17:20.781Z,96479.81
2023-07-21T06:18:22.652Z,96480.09
2023-07-21T06:19:24.759Z,96475.34
2023-07-21T06:20:29.586Z,96467.13
2023-07-21T06:21:31.620Z,96470.84
2023-07-21T06:22:33.984Z,96464.75
2023-07-21T06:23:35.797Z,96462.09
2023-07-21T06:24:37.620Z,96462.88
2023-07-21T06:25:39.836Z,96461.84
2023-07-21T06:26:41.609Z,96458.91
2023-07-21T06:27:45.634Z,96452.31
2023-07-21T06:28:48.317Z,96458.66
2023-07-21T06:29:50.192Z,96453.63
2023-07-21T06:30:52.028Z,96452.31
2023-07-21T06:31:54.880Z,96453.94
2023-07-21T06:32:56.597Z,96453.38
2023-07-21T06:33:58.367Z,96452.03
2023-07-21T06:35:00.937Z,96448.34
2023-07-21T06:36:02.928Z,96445.97
2023-07-21T06:37:05.077Z,96447.56
2023-07-21T06:38:08.478Z,96440.16
2023-07-21T06:39:10.508Z,96433.53
2023-07-21T06:40:12.445Z,96427.16
2023-07-21T06:41:14.206Z,96423.19
2023-07-21T06:42:16.180Z,96417.34
2023-07-21T06:43:17.912Z,96412.84
2023-07-21T06:44:21.871Z,96404.66
2023-07-21T06:45:23.799Z,96413.91
2023-07-21T06:46:25.664Z,96412.06
2023-07-21T06:47:27.721Z,96416.81
2023-07-21T06:48:29.474Z,96410.22
2023-07-21T06:49:31.202Z,96411.53
2023-07-21T06:50:33.695Z,96415.78
2023-07-21T06:51:36.859Z,96413.66
2023-07-21T06:52:38.874Z,96414.75
2023-07-21T06:53:41.583Z,96414.19
2023-07-21T06:54:43.627Z,96415.78
2023-07-21T06:55:47.871Z,96411.03
2023-07-21T06:56:50.257Z,96405.22
2023-07-21T06:57:52.156Z,96404.69
2023-07-21T06:58:53.863Z,96393.31
2023-07-21T06:59:56.518Z,96396.75
2023-07-21T07:00:59.103Z,96398.34
2023-07-21T07:02:01.029Z,96396.22
2023-07-21T07:03:02.899Z,96390.91
2023-07-21T07:04:05.040Z,96386.91
2023-07-21T07:05:07.867Z,96386.66
2023-07-21T07:06:09.612Z,96384.00
2023-07-21T07:07:11.380Z,96389.81
2023-07-21T07:08:13.880Z,96389.28
2023-07-21T07:09:15.825Z,96381.88
2023-07-21T07:10:17.662Z,96381.63
2023-07-21T07:11:19.564Z,96383.22
2023-07-21T07:12:21.692Z,96381.88
2023-07-21T07:13:23.442Z,96379.50
2023-07-21T07:14:25.695Z,96378.66
2023-07-21T07:15:27.529Z,96381.31
2023-07-21T07:16:29.349Z,96376.28
2023-07-21T07:17:31.246Z,96383.91
2023-07-21T07:18:33.554Z,96375.47
2023-07-21T07:19:35.704Z,96377.59
2023-07-21T07:20:37.668Z,96379.66
2023-07-21T07:21:39.658Z,96377.53
2023-07-21T07:22:41.504Z,96379.13
2023-07-21T07:23:43.358Z,96376.75
2023-07-21T07:24:45.214Z,96371.97
2023-07-21T07:25:48.310Z,96374.63
2023-07-21T07:26:50.308Z,96379.38
2023-07-21T07:27:53.286Z,96378.31
2023-07-21T07:28:55.595Z,96378.03
2023-07-21T07:29:57.333Z,96378.56
2023-07-21T07:31:03.872Z,96384.38
2023-07-21T07:32:05.918Z,96385.47
2023-07-21T07:33:07.713Z,96388.66
2023-07-21T07:34:09.490Z,96386.28
2023-07-21T07:35:11.712Z,96384.69
2023-07-21T07:36:13.587Z,96386.56
2023-07-21T07:37:16.195Z,96377.59
2023-07-21T07:38:25.605Z,96377.88
2023-07-21T07:39:27.325Z,96371.78
2023-07-21T07:40:29.247Z,96369.13
2023-07-21T07:41:31.023Z,96376.03
2023-07-21T07:42:33.782Z,96368.59
2023-07-21T07:43:35.798Z,96374.41
2023-07-21T07:44:37.674Z,96370.44
2023-07-21T07:45:39.443Z,96373.06
2023-07-21T07:46:41.272Z,96364.88
2023-07-21T07:47:46.269Z,96369.13
2023-07-21T07:48:49.410Z,96368.84
2023-07-21T07:49:51.322Z,96361.13
2023-07-21T07:50:53.494Z,96368.81
2023-07-21T07:51:55.217Z,96360.63
2023-07-21T07:52:58.311Z,96361.66
2023-07-21T07:54:02.548Z,96358.78
2023-07-21T07:55:04.434Z,96363.78
2023-07-21T07:56:06.310Z,96373.56
2023-07-21T07:57:09.468Z,96364.56
2023-07-21T07:58:11.599Z,96369.31
2023-07-21T07:59:13.359Z,96376.19
2023-07-21T08:00:15.786Z,96374.88
2023-07-21T08:01:17.632Z,96381.47
2023-07-21T08:02:19.473Z,96378.56
2023-07-21T08:03:21.316Z,96378.06
2023-07-21T08:04:23.366Z,96371.69
2023-07-21T08:05:25.233Z,96378.06
2023-07-21T08:06:29.860Z,96373.28
2023-07-21T08:07:34.355Z,96378.56
2023-07-21T08:08:37.529Z,96380.69
2023-07-21T08:09:39.475Z,96378.56
2023-07-21T08:10:43.265Z,96370.13
2023-07-21T08:11:45.191Z,96373.81
2023-07-21T08:12:47.120Z,96369.53
2023-07-21T08:13:49.005Z,96365.81
2023-07-21T08:14:50.980Z,96360.00
2023-07-21T08:15:52.911Z,96357.59
2023-07-21T08:16:55.052Z,96359.75
2023-07-21T08:17:57.289Z,96346.50
2023-07-21T08:18:59.256Z,96353.66
2023-07-21T08:20:00.994Z,96352.06
2023-07-21T08:21:17.799Z,96347.28
2023-07-21T08:22:19.590Z,96346.22
2023-07-21T08:23:29.464Z,96349.41
2023-07-21T08:24:32.806Z,96349.63
2023-07-21T08:25:34.900Z,96347.78
2023-07-21T08:26:36.800Z,96339.28
2023-07-21T08:27:38.655Z,96346.16
2023-07-21T08:28:40.654Z,96338.16
2023-07-21T08:29:42.491Z,96342.41
2023-07-21T08:30:56.581Z,96344.22
2023-07-21T08:32:01.110Z,96353.47
2023-07-21T08:33:05.682Z,96353.19
2023-07-21T08:34:09.841Z,96351.84
2023-07-21T08:35:11.779Z,96348.94
2023-07-21T08:36:13.613Z,96352.88
2023-07-21T08:37:16.210Z,96348.38
2023-07-21T08:38:17.997Z,96339.63
2023-07-21T08:39:20.489Z,96344.38
2023-07-21T08:40:24.382Z,96342.59
2023-07-21T08:41:26.798Z,96340.97
2023-07-21T08:42:29.324Z,96336.47
2023-07-21T08:43:31.271Z,96333.88
2023-07-21T08:44:33.538Z,96330.97
2023-07-21T08:45:35.360Z,96332.56
2023-07-21T08:46:37.551Z,96341.03
2023-07-21T08:47:39.473Z,96340.75
2023-07-21T08:48:41.986Z,96339.69
2023-07-21T08:49:43.722Z,96335.97
2023-07-21T08:50:49.179Z,96332.25
2023-07-21T08:51:51.089Z,96327.47
2023-07-21T08:52:52.869Z,96323.75
2023-07-21T08:53:54.655Z,96326.91
2023-07-21T08:54:56.484Z,96316.59
2023-07-21T08:56:00.032Z,96315.25
2023-07-21T08:57:01.810Z,96320.78
2023-07-21T08:58:03.675Z,96312.84
2023-07-21T08:59:05.600Z,96310.72
2023-07-21T09:00:08.190Z,96312.00
2023-07-21T09:01:10.521Z,96307.22
2023-07-21T09:02:12.344Z,96316.22
2023-07-21T09:03:22.358Z,96315.16
2023-07-21T09:04:25.259Z,96310.88
2023-07-21T09:05:27.631Z,96316.44
2023-07-21T09:06:29.873Z,96320.38
2023-07-21T09:07:32.076Z,96323.53
2023-07-21T09:08:35.283Z,96326.69
2023-07-21T09:09:37.316Z,96321.34
2023-07-21T09:10:39.402Z,96328.47
2023-07-21T09:11:41.194Z,96327.09
2023-07-21T09:12:43.112Z,96329.22
2023-07-21T09:13:51.799Z,96333.97
2023-07-21T09:14:53.559Z,96339.78
2023-07-21T09:15:56.454Z,96333.13
2023-07-21T09:16:58.750Z,96336.28
2023-07-21T09:18:01.526Z,96336.28
2023-07-21T09:19:03.426Z,96335.50
2023-07-21T09:20:08.708Z,96335.22
2023-07-21T09:21:23.528Z,96344.78
2023-07-21T09:22:25.693Z,96334.44
2023-07-21T09:23:31.080Z,96333.63
2023-07-21T09:24:33.191Z,96332.06
2023-07-21T09:25:34.953Z,96328.34
2023-07-21T09:26:36.740Z,96322.50
2023-07-21T09:27:41.127Z,96330.47
2023-07-21T09:28:44.396Z,96331.03
2023-07-21T09:29:46.721Z,96323.38
2023-07-21T09:30:55.597Z,96329.19
2023-07-21T09:31:57.497Z,96333.44
2023-07-21T09:32:59.379Z,96327.03
2023-07-21T09:34:07.984Z,96324.13
2023-07-21T09:35:11.599Z,96325.69
2023-07-21T09:36:17.706Z,96320.91
2023-07-21T09:37:19.571Z,96324.84
2023-07-21T09:38:22.549Z,96324.28
2023-07-21T09:39:24.291Z,96322.66
2023-07-21T09:40:31.860Z,96317.84
2023-07-21T09:41:34.612Z,96318.88
2023-07-21T09:42:36.901Z,96313.00
2023-07-21T09:43:39.129Z,96315.38
2023-07-21T09:44:41.532Z,96318.03
2023-07-21T09:45:44.331Z,96330.50
2023-07-21T09:46:46.149Z,96333.66
2023-07-21T09:47:48.355Z,96321.97
2023-07-21T09:48:50.289Z,96330.72
2023-07-21T09:49:56.634Z,96328.34
2023-07-21T09:51:02.693Z,96324.63
2023-07-21T09:52:04.703Z,96329.16
2023-07-21T09:53:06.452Z,96328.84
2023-07-21T09:54:13.290Z,96320.34
2023-07-21T09:55:17.712Z,96321.91
2023-07-21T09:56:21.535Z,96325.38
2023-07-21T09:57:24.017Z,96313.69
2023-07-21T09:58:27.339Z,96322.72
2023-07-21T09:59:32.690Z,96321.72
2023-07-21T10:00:35.547Z,96323.03
2023-07-21T10:01:37.943Z,96320.38
2023-07-21T10:02:41.605Z,96329.94
2023-07-21T10:03:44.524Z,96329.16
2023-07-21T10:04:46.611Z,96331.31
2023-07-21T10:05:48.750Z,96333.16
2023-07-21T10:06:51.456Z,96337.66
2023-07-21T10:07:53.458Z,96331.06
2023-07-21T10:08:55.612Z,96335.59
2023-07-21T10:09:57.486Z,96327.91
2023-07-21T10:11:00.141Z,96337.94
2023-07-21T10:12:16.001Z,96334.78
2023-07-21T10:13:19.785Z,96332.63
2023-07-21T10:14:32.398Z,96330.78
2023-07-21T10:15:35.467Z,96331.06
2023-07-21T10:16:37.438Z,96331.09
2023-07-21T10:17:44.096Z,96334.56
2023-07-21T10:19:04.370Z,96330.84
2023-07-21T10:20:09.551Z,96331.84
2023-07-21T10:21:11.802Z,96329.72
2023-07-21T10:22:23.667Z,96311.16
2023-07-21T10:23:27.208Z,96314.56
2023-07-21T10:24:29.822Z,96315.38
2023-07-21T10:25:46.576Z,96299.25
2023-07-21T10:26:53.868Z,96309.34
2023-07-21T10:28:05.116Z,96311.22
2023-07-21T10:29:17.061Z,96317.31
2023-07-21T10:30:20.002Z,96305.59
2023-07-21T10:31:28.581Z,96306.94
2023-07-21T10:32:42.366Z,96313.00
2023-07-21T10:34:03.222Z,96322.53
2023-07-21T10:35:05.633Z,96328.94
2023-07-21T10:36:15.141Z,96328.94
2023-07-21T10:37:16.870Z,96334.47
2023-07-21T10:38:19.156Z,96326.78
2023-07-21T10:39:21.792Z,96332.09
2023-07-21T10:40:23.615Z,96323.13
2023-07-21T10:41:25.740Z,96323.13
2023-07-21T10:42:27.843Z,96331.06
2023-07-21T10:43:31.254Z,96326.53
2023-07-21T10:44:37.218Z,96334.22
2023-07-21T10:45:39.488Z,96334.22
2023-07-21T10:46:45.716Z,96339.03
2023-07-21T10:47:47.709Z,96330.56
2023-07-21T10:48:49.730Z,96332.63
2023-07-21T10:49:51.494Z,96333.44
2023-07-21T10:50:55.996Z,96332.09
2023-07-21T10:51:57.860Z,96335.53
2023-07-21T10:52:59.722Z,96337.66
2023-07-21T10:54:01.505Z,96337.38
2023-07-21T10:55:03.524Z,96333.38
2023-07-21T10:56:08.985Z,96317.47
2023-07-21T10:57:11.046Z,96307.38
2023-07-21T10:58:14.878Z,96301.28
2023-07-21T10:59:17.646Z,96297.84
2023-07-21T11:00:19.522Z,96297.03
2023-07-21T11:01:21.431Z,96301.81
2023-07-21T11:02:26.700Z,96294.16
2023-07-21T11:03:28.644Z,96296.00
2023-07-21T11:04:32.129Z,96288.88
2023-07-21T11:05:37.610Z,96288.56
2023-07-21T11:06:40.700Z,96282.56
2023-07-21T11:07:42.538Z,96287.84
2023-07-21T11:08:45.204Z,96293.34
2023-07-21T11:09:47.291Z,96301.28
2023-07-21T11:10:49.439Z,96298.53
2023-07-21T11:11:52.139Z,96298.00
2023-07-21T11:12:53.999Z,96303.81
2023-07-21T11:13:55.863Z,96305.69
2023-07-21T11:14:57.843Z,96302.44
2023-07-21T11:16:01.365Z,96299.47
2023-07-21T11:17:04.534Z,96282.69
2023-07-21T11:18:06.699Z,96286.56
2023-07-21T11:19:09.456Z,96279.53
2023-07-21T11:20:12.210Z,96287.38
2023-07-21T11:21:13.978Z,96286.41
2023-07-21T11:22:15.811Z,96285.31
2023-07-21T11:23:17.791Z,96282.91
2023-07-21T11:24:25.367Z,96282.16
2023-07-21T11:25:27.256Z,96284.06
2023-07-21T11:26:29.109Z,96269.03
2023-07-21T11:27:30.888Z,96265.22
2023-07-21T11:28:34.032Z,96257.66
2023-07-21T11:29:36.269Z,96255.16
2023-07-21T11:30:38.079Z,96251.66
2023-07-21T11:31:40.028Z,96259.22
2023-07-21T11:32:41.887Z,96246.84
2023-07-21T11:33:44.664Z,96245.81
2023-07-21T11:34:46.901Z,96247.50
2023-07-21T11:35:49.875Z,96259.72
2023-07-21T11:37:01.660Z,96255.59
2023-07-21T11:38:03.486Z,96252.34
2023-07-21T11:39:08.958Z,96257.25
2023-07-21T11:40:16.898Z,96259.53
2023-07-21T11:41:31.045Z,96271.94
2023-07-21T11:42:44.814Z,96273.69
2023-07-21T11:43:50.926Z,96280.19
2023-07-21T11:44:54.271Z,96287.09
2023-07-21T11:45:57.289Z,96284.13
2023-07-21T11:47:07.148Z,96285.03
2023-07-21T11:48:14.350Z,96286.44
2023-07-21T11:49:16.733Z,96287.19
2023-07-21T11:50:19.676Z,96288.59
2023-07-21T11:51:24.270Z,96291.06
2023-07-21T11:52:28.598Z,96292.63
2023-07-21T11:53:44.645Z,96292.34
2023-07-21T11:54:47.434Z,96291.13
2023-07-21T11:55:49.650Z,96290.63
2023-07-21T11:56:52.366Z,96282.06
2023-07-21T11:57:54.862Z,96294.56
2023-07-21T11:58:58.037Z,96295.38
2023-07-21T11:59:59.964Z,96289.72
2023-07-21T12:01:01.808Z,96293.97
2023-07-21T12:02:08.122Z,96300.84
2023-07-21T12:03:11.227Z,96300.28
2023-07-21T12:04:13.542Z,96290.88
2023-07-21T12:05:15.329Z,96292.16
2023-07-21T12:06:17.054Z,96293.44
2023-07-21T12:07:18.954Z,96300.63
2023-07-21T12:08:20.906Z,96296.91
2023-07-21T12:09:22.752Z,96293.13
2023-07-21T12:10:25.059Z,96296.31
2023-07-21T12:11:27.128Z,96300.81
2023-07-21T12:12:29.394Z,96295.78
2023-07-21T12:13:31.251Z,96300.34
2023-07-21T12:14:33.040Z,96297.97
2023-07-21T12:15:36.305Z,96303.28
2023-07-21T12:16:38.646Z,96308.13
2023-07-21T12:17:40.617Z,96301.25
2023-07-21T12:18:43.929Z,96312.97
2023-07-21T12:19:45.753Z,96302.66